M I D A S
Marine Information and Data Acquisition System
Tripno 1824 of the Zeeleeuw from 2009-12-10 09:05:04 to 2009-12-10 17:14:51
Back to CruiseResearch ActivitiesStationsMapUnderway DataData graphs

EquipmentUnitsComment
TimeDGPSUTC
LatitudeDGPSDM.mWGS84
LongitudeDGPSDM.mWGS84
HeadingGyrodeg 
SOGDGPSknotsSpeed over ground
COGDGPSdegCourse over ground
DepthEcho soundermeters200 kHz
Missing or incorrect values are displayed as -999
Navigation data collected by the RV Zeeleeuw from 2009-12-10 09:10:59 to 2009-12-10 17:22:13
Time Latitude Longitude Heading SOG COG Depth
2009-12-10 09:12:07 51°13.68 2°55.895 112.4 3.6 293 -999
2009-12-10 09:13:07 51°13.715 2°55.796 122.9 4.4 303 -999
2009-12-10 09:14:07 51°13.759 2°55.708 136.7 4.1 315 -999
2009-12-10 09:15:07 51°13.822 2°55.645 159.5 4.9 339 -999
2009-12-10 09:16:07 51°13.896 2°55.624 181.5 3.6 1 -999
2009-12-10 09:17:07 51°13.935 2°55.633 201.8 0.2 349 12.1
2009-12-10 09:18:05 51°13.936 2°55.646 232.7 0.7 176 12.1
2009-12-10 09:19:04 51°13.945 2°55.584 314 4.2 320 12.4
2009-12-10 09:20:04 51°14.036 2°55.504 330.3 7.9 330 12.5
2009-12-10 09:21:04 51°14.161 2°55.384 325.4 9.3 326 12.2
2009-12-10 09:22:04 51°14.28 2°55.206 310.3 10.4 309 11.7
2009-12-10 09:23:04 51°14.394 2°54.991 312.6 10.5 312 11.5
2009-12-10 09:24:04 51°14.54 2°54.851 332.6 10.4 336 11.6
2009-12-10 09:25:04 51°14.694 2°54.727 329.2 10.6 332 10.9
2009-12-10 09:26:04 51°14.847 2°54.605 329.6 10 335 -999
2009-12-10 09:27:04 51°14.994 2°54.483 328.6 10.2 332 11.7
2009-12-10 09:28:04 51°15.148 2°54.35 327.6 10.6 331 11.6
2009-12-10 09:29:04 51°15.303 2°54.213 330 10.7 330 10.8
2009-12-10 09:30:03 51°15.452 2°54.08 329.1 10.4 330 10.9
2009-12-10 09:31:03 51°15.605 2°53.94 328.6 10.7 330 11.9
2009-12-10 09:32:04 51°15.763 2°53.805 329.8 10.5 330 12.4
2009-12-10 09:33:03 51°15.915 2°53.675 329.5 10.5 332 12.2
2009-12-10 09:34:04 51°16.071 2°53.542 329.5 10.4 332 13.1
2009-12-10 09:35:04 51°16.221 2°53.415 329.7 10.2 333 13
2009-12-10 09:36:03 51°16.374 2°53.28 328.8 10.9 331 13
2009-12-10 09:37:03 51°16.532 2°53.143 329.4 10.7 333 12.6
2009-12-10 09:38:03 51°16.687 2°53.016 329.7 10.4 333 12.9
2009-12-10 09:39:03 51°16.84 2°52.887 329.3 10.6 333 10.3
2009-12-10 09:40:03 51°16.995 2°52.761 329.9 10.5 332 10.9
2009-12-10 09:41:04 51°17.15 2°52.63 328.5 10.5 333 10.7
2009-12-10 09:42:03 51°17.322 2°52.572 355 11.1 355 10.9
2009-12-10 09:43:03 51°17.507 2°52.575 0.2 11 1 11.5
2009-12-10 09:44:03 51°17.692 2°52.581 359.5 11.1 7 13.1
2009-12-10 09:45:04 51°17.871 2°52.593 359.1 11 2 11.4
2009-12-10 09:46:03 51°18.05 2°52.614 6.7 10.9 9 11.2
2009-12-10 09:47:03 51°18.218 2°52.733 32.2 11.4 39 12.2
2009-12-10 09:48:03 51°18.338 2°52.957 64.2 11.3 63 12.3
2009-12-10 09:49:03 51°18.4 2°53.234 68.3 11 65 11.9
2009-12-10 09:50:04 51°18.478 2°53.511 61.8 11.3 60 11.9
2009-12-10 09:51:03 51°18.566 2°53.771 61 11.2 56 11.8
2009-12-10 09:52:03 51°18.657 2°54.028 62.2 11.1 59 12.6
2009-12-10 09:53:03 51°18.755 2°54.282 57.5 11.1 52 12.5
2009-12-10 09:54:03 51°18.853 2°54.531 59.3 10.9 60 12.6
2009-12-10 09:55:03 51°18.941 2°54.791 65.7 11.2 61 12.1
2009-12-10 09:56:04 51°19.019 2°55.068 67.3 11.3 58 12.1
2009-12-10 09:57:03 51°19.101 2°55.326 62.5 11.2 66 11.9
2009-12-10 09:58:03 51°19.179 2°55.593 70.4 11.3 73 12.1
2009-12-10 09:59:03 51°19.244 2°55.869 71.3 10.9 70 11.4
2009-12-10 10:00:03 51°19.305 2°56.144 71 11 67 12
2009-12-10 10:01:03 51°19.365 2°56.421 72.6 11.2 65 12.3
2009-12-10 10:02:03 51°19.422 2°56.697 73.6 11 70 11.5
2009-12-10 10:03:03 51°19.484 2°56.972 72.1 11 64 11.5
2009-12-10 10:04:03 51°19.548 2°57.243 72.7 10.9 61 11.4
2009-12-10 10:05:03 51°19.601 2°57.524 76.3 11.1 67 11.5
2009-12-10 10:06:03 51°19.645 2°57.807 77.8 11.1 73 11.2
2009-12-10 10:07:03 51°19.689 2°58.088 78.5 11 75 11.2
2009-12-10 10:08:03 51°19.732 2°58.37 75.7 10.8 74 10.7
2009-12-10 10:09:03 51°19.763 2°58.656 84.3 11.1 87 10.5
2009-12-10 10:10:03 51°19.761 2°58.946 95.7 11.1 95 10.3
2009-12-10 10:11:03 51°19.763 2°59.235 92.2 11 84 10.2
2009-12-10 10:12:03 51°19.8 2°59.519 74.7 11 67 9.7
2009-12-10 10:13:03 51°19.863 2°59.795 68.6 11.1 77 9.5
2009-12-10 10:14:03 51°19.928 3°0.068 72 11.1 66 10.1
2009-12-10 10:15:03 51°19.991 3°0.342 69 11.1 69 10
2009-12-10 10:16:03 51°20.07 3°0.602 61.1 11 57 9.7
2009-12-10 10:17:03 51°20.149 3°0.865 64 11 71 9.9
2009-12-10 10:18:03 51°20.225 3°1.125 67.3 10.7 60 9.6
2009-12-10 10:19:03 51°20.304 3°1.383 62.6 10.9 66 9.7
2009-12-10 10:20:03 51°20.376 3°1.642 64.5 10.7 69 9.7
2009-12-10 10:21:03 51°20.445 3°1.906 71.2 10.6 67 10.3
2009-12-10 10:22:03 51°20.517 3°2.166 65.4 10.7 67 9.5
2009-12-10 10:23:03 51°20.589 3°2.426 66.5 10.6 63 10.1
2009-12-10 10:24:03 51°20.663 3°2.684 68.8 10.9 68 10.4
2009-12-10 10:25:03 51°20.73 3°2.946 69.8 10.7 71 9.9
2009-12-10 10:26:03 51°20.786 3°3.214 74.5 10.7 74 10.1
2009-12-10 10:27:03 51°20.846 3°3.475 71.5 10.7 77 9.8
2009-12-10 10:28:03 51°20.904 3°3.736 72.6 10.5 74 10.4
2009-12-10 10:29:03 51°20.964 3°4 71.6 10.6 67 9.9
2009-12-10 10:30:03 51°21.023 3°4.264 71.1 10.6 62 9.9
2009-12-10 10:31:03 51°21.08 3°4.528 72.4 10.5 66 10.6
2009-12-10 10:32:03 51°21.136 3°4.793 71.5 10.7 77 10.3
2009-12-10 10:33:03 51°21.195 3°5.055 71.1 10.3 64 10.4
2009-12-10 10:34:03 51°21.253 3°5.315 70.8 10.4 67 10.6
2009-12-10 10:35:04 51°21.312 3°5.574 68.4 10.3 65 10.3
2009-12-10 10:36:03 51°21.373 3°5.828 67.6 10.6 70 10.6
2009-12-10 10:37:03 51°21.436 3°6.083 67.4 10.1 66 10.4
2009-12-10 10:38:03 51°21.534 3°6.307 48 10.3 54 11.5
2009-12-10 10:39:03 51°21.65 3°6.513 53.4 10.6 53 10.8
2009-12-10 10:40:03 51°21.748 3°6.742 57.3 10.5 51 11.1
2009-12-10 10:41:03 51°21.828 3°6.992 63.8 10.7 66 12.2
2009-12-10 10:42:03 51°21.89 3°7.251 70.8 10.8 81 12
2009-12-10 10:43:04 51°21.944 3°7.516 68.6 10 68 12.8
2009-12-10 10:44:03 51°21.984 3°7.776 77.1 10.5 75 12.2
2009-12-10 10:45:03 51°22.019 3°8.043 78.5 10.4 77 12.2
2009-12-10 10:46:03 51°22.055 3°8.309 75 10.1 75 -999
2009-12-10 10:47:03 51°22.087 3°8.577 76.3 10.4 78 12.6
2009-12-10 10:48:03 51°22.12 3°8.846 78.5 10.1 78 12.7
2009-12-10 10:49:03 51°22.153 3°9.113 79.3 10.2 78 13.1
2009-12-10 10:50:03 51°22.179 3°9.332 75.3 5.1 70 13.1
2009-12-10 10:51:03 51°22.198 3°9.419 67.5 2.4 64 13.7
2009-12-10 10:52:03 51°22.215 3°9.46 59.8 2 59 13.9
2009-12-10 10:53:03 51°22.27 3°9.563 44.4 7.3 38 13.4
2009-12-10 10:54:03 51°22.405 3°9.69 35.9 10.3 36 14.5
2009-12-10 10:55:03 51°22.524 3°9.882 60.3 10.2 57 14.2
2009-12-10 10:56:03 51°22.574 3°10.14 76.4 10.7 79 5
2009-12-10 10:57:03 51°22.62 3°10.41 78.5 10.4 78 16.1
2009-12-10 10:58:03 51°22.648 3°10.674 79.1 10 88 15
2009-12-10 10:59:03 51°22.654 3°10.941 91.3 10.2 91 15.2
2009-12-10 11:00:03 51°22.646 3°11.206 93.6 9.7 98 14.8
2009-12-10 11:01:03 51°22.612 3°11.46 103 9.9 105 15.3
2009-12-10 11:02:03 51°22.598 3°11.721 90.2 10.1 94 15.1
2009-12-10 11:03:03 51°22.602 3°11.985 88.8 9.9 91 14.3
2009-12-10 11:04:03 51°22.609 3°12.239 87.8 9.6 88 14
2009-12-10 11:05:03 51°22.617 3°12.495 83.1 9.4 81 13.7
2009-12-10 11:06:03 51°22.628 3°12.746 83.7 9.4 90 13.2
2009-12-10 11:07:03 51°22.63 3°13.002 88.9 9.9 90 12.5
2009-12-10 11:08:03 51°22.617 3°13.226 113.1 5.6 128 12.2
2009-12-10 11:09:03 51°22.559 3°13.255 171.2 3.1 193 12.2
2009-12-10 11:10:03 51°22.511 3°13.197 228 4 234 12.3
2009-12-10 11:11:03 51°22.491 3°13.127 248.9 1.3 242 12.4
2009-12-10 11:12:03 51°22.482 3°13.11 220.5 0.5 231 12.6
2009-12-10 11:13:03 51°22.482 3°13.1 196.1 0.7 297 12.3
2009-12-10 11:14:03 51°22.488 3°13.084 172.1 0.8 302 12.6
2009-12-10 11:15:03 51°22.494 3°13.066 165 0.7 288 12.8
2009-12-10 11:16:03 51°22.499 3°13.047 160.3 0.7 284 12.7
2009-12-10 11:17:03 51°22.499 3°13.029 164.8 0.7 253 12.9
2009-12-10 11:18:03 51°22.494 3°13.01 178.2 0.7 235 12.9
2009-12-10 11:19:03 51°22.488 3°12.99 190.8 0.8 240 13
2009-12-10 11:20:03 51°22.483 3°12.972 198.4 0.7 258 13
2009-12-10 11:21:03 51°22.479 3°12.955 195.8 0.6 254 13.4
2009-12-10 11:22:03 51°22.476 3°12.939 197.6 0.7 246 13.3
2009-12-10 11:23:03 51°22.473 3°12.924 196.1 0.8 257 12.8
2009-12-10 11:24:03 51°22.469 3°12.907 198.4 0.8 249 12.7
2009-12-10 11:25:03 51°22.466 3°12.891 196.1 0.7 248 13.3
2009-12-10 11:26:03 51°22.463 3°12.874 197.8 0.6 256 13.6
2009-12-10 11:27:03 51°22.456 3°12.855 198.2 2 222 13.1
2009-12-10 11:28:03 51°22.426 3°12.76 265.7 5.3 268 13.6
2009-12-10 11:29:03 51°22.479 3°12.684 19.3 4.4 18 13.8
2009-12-10 11:30:03 51°22.522 3°12.812 61.8 7.1 57 13.1
2009-12-10 11:31:03 51°22.584 3°12.985 73.7 7.7 77 12.5
2009-12-10 11:32:03 51°22.622 3°13.179 67.6 6.8 73 11.8
2009-12-10 11:33:03 51°22.599 3°13.269 137.4 3.2 165 12
2009-12-10 11:34:03 51°22.574 3°13.26 182 0.7 241 11.9
2009-12-10 11:35:03 51°22.57 3°13.242 187.4 0.8 258 11.6
2009-12-10 11:36:03 51°22.567 3°13.226 186.5 0.7 244 11.8
2009-12-10 11:37:03 51°22.56 3°13.211 193.9 0.9 235 11.6
2009-12-10 11:38:03 51°22.552 3°13.192 198.8 0.8 234 11.9
2009-12-10 11:39:03 51°22.545 3°13.174 200.4 0.8 242 12.3
2009-12-10 11:40:03 51°22.54 3°13.158 193.4 0.6 242 12.3
2009-12-10 11:41:03 51°22.534 3°13.143 193.8 0.4 221 12.5
2009-12-10 11:42:03 51°22.529 3°13.125 196.6 0.8 241 12.5
2009-12-10 11:43:03 51°22.523 3°13.107 196.1 0.7 242 12.4
2009-12-10 11:44:03 51°22.518 3°13.091 194.7 0.5 231 12.5
2009-12-10 11:45:03 51°22.512 3°13.076 193.8 0.8 242 12.5
2009-12-10 11:46:03 51°22.506 3°13.059 192.3 0.7 236 11.9
2009-12-10 11:47:03 51°22.499 3°13.041 196.1 0.9 243 12.6
2009-12-10 11:48:03 51°22.492 3°13.023 199.1 0.8 242 12.5
2009-12-10 11:49:03 51°22.487 3°13.004 197.6 0.8 251 12.9
2009-12-10 11:50:03 51°22.482 3°12.988 190.6 0.7 255 12.9
2009-12-10 11:51:03 51°22.479 3°12.972 188.6 0.7 247 12.9
2009-12-10 11:52:03 51°22.475 3°12.955 189.7 0.9 251 12.8
2009-12-10 11:53:03 51°22.469 3°12.936 195.4 0.8 247 12.7
2009-12-10 11:54:03 51°22.463 3°12.917 192.1 0.8 250 13.3
2009-12-10 11:55:03 51°22.456 3°12.897 193.3 0.8 247 12.3
2009-12-10 11:56:04 51°22.451 3°12.878 193.4 0.8 240 13.1
2009-12-10 11:57:03 51°22.445 3°12.859 196.8 0.7 233 13.4
2009-12-10 11:58:03 51°22.439 3°12.839 201.8 0.8 246 13.1
2009-12-10 11:59:03 51°22.433 3°12.818 199.2 0.6 244 13.4
2009-12-10 12:00:03 51°22.429 3°12.801 194.9 0.6 251 13.7
2009-12-10 12:01:03 51°22.402 3°12.782 158.1 2.5 183 13.1
2009-12-10 12:02:03 51°22.378 3°12.81 92 1.6 86 13.1
2009-12-10 12:03:03 51°22.399 3°12.85 52.1 2.5 34 13
2009-12-10 12:04:03 51°22.442 3°12.906 45.7 3.9 41 13.4
2009-12-10 12:05:03 51°22.499 3°12.976 42.1 4.9 36 12.4
2009-12-10 12:06:03 51°22.574 3°13.067 43.6 6.1 38 12.2
2009-12-10 12:07:03 51°22.675 3°13.192 43.3 8.8 35 11.4
2009-12-10 12:08:03 51°22.795 3°13.355 45.8 9.9 35 10.3
2009-12-10 12:09:03 51°22.914 3°13.528 43 9.8 37 9.5
2009-12-10 12:10:03 51°23.033 3°13.703 45.1 9.8 38 9.9
2009-12-10 12:11:03 51°23.153 3°13.873 46.1 9.8 41 9.7
2009-12-10 12:12:03 51°23.275 3°14.043 44.6 9.9 37 9.1
2009-12-10 12:13:03 51°23.395 3°14.215 44.7 9.8 37 9.2
2009-12-10 12:14:03 51°23.519 3°14.376 40 9.8 36 10.2
2009-12-10 12:15:03 51°23.651 3°14.526 38.7 9.8 31 11.1
2009-12-10 12:16:04 51°23.789 3°14.671 38.2 9.7 35 10.3
2009-12-10 12:17:05 51°23.925 3°14.82 41.2 9.7 39 11.3
2009-12-10 12:18:05 51°24.064 3°14.953 36.2 9.2 30 11
2009-12-10 12:19:04 51°24.112 3°15.125 85.1 7 88 11.4
2009-12-10 12:20:04 51°24.126 3°15.3 92 4.8 111 11.6
2009-12-10 12:21:04 51°24.076 3°15.338 157.7 3.7 185 11.7
2009-12-10 12:22:04 51°24.015 3°15.347 142.3 3.9 164 11.9
2009-12-10 12:23:04 51°23.944 3°15.373 156 4.1 174 12.3
2009-12-10 12:24:04 51°23.877 3°15.351 181.5 4.2 198 12.2
2009-12-10 12:25:04 51°23.813 3°15.302 196.1 4.2 213 11.1
2009-12-10 12:26:04 51°23.762 3°15.244 202.9 3.6 219 10.7
2009-12-10 12:27:05 51°23.718 3°15.179 217.8 3.4 234 10.8
2009-12-10 12:28:04 51°23.684 3°15.111 236 3.3 236 10.5
2009-12-10 12:29:05 51°23.658 3°15.03 254.5 3.5 248 10.6
2009-12-10 12:30:05 51°23.643 3°14.946 272.1 3.5 264 10.5
2009-12-10 12:31:05 51°23.644 3°14.85 297.8 4.2 287 10.4
2009-12-10 12:32:05 51°23.664 3°14.743 297.4 4.1 285 10.6
2009-12-10 12:33:05 51°23.677 3°14.639 292.7 4 279 11.3
2009-12-10 12:34:04 51°23.69 3°14.54 295.7 3.9 283 10.1
2009-12-10 12:35:04 51°23.703 3°14.44 294.8 3.7 281 9.9
2009-12-10 12:36:05 51°23.717 3°14.34 295.5 3.7 281 11.1
2009-12-10 12:37:04 51°23.729 3°14.24 292.1 4.1 281 11.1
2009-12-10 12:38:05 51°23.738 3°14.131 288.6 4.1 278 11.1
2009-12-10 12:39:05 51°23.745 3°14.027 289.5 3.7 277 10.5
2009-12-10 12:40:05 51°23.747 3°13.937 287.6 3.4 269 11.7
2009-12-10 12:41:05 51°23.751 3°13.837 289.3 3.7 276 10.6
2009-12-10 12:42:05 51°23.758 3°13.735 291 4.2 277 11.2
2009-12-10 12:43:04 51°23.764 3°13.638 290.7 3.9 277 10.9
2009-12-10 12:44:04 51°23.771 3°13.533 289.4 4.2 277 10.9
2009-12-10 12:45:05 51°23.779 3°13.425 290.8 4.2 275 11.4
2009-12-10 12:46:04 51°23.786 3°13.318 290.9 3.6 279 11.2
2009-12-10 12:47:05 51°23.793 3°13.209 287.5 4.2 273 10.6
2009-12-10 12:48:05 51°23.789 3°13.114 278.3 3.5 259 11.8
2009-12-10 12:49:05 51°23.783 3°13.01 281 4.2 269 11
2009-12-10 12:50:05 51°23.778 3°12.912 279.9 3.7 263 10.6
2009-12-10 12:51:05 51°23.769 3°12.812 277.7 4 264 10.6
2009-12-10 12:52:05 51°23.758 3°12.714 269.4 3.8 254 11
2009-12-10 12:53:05 51°23.739 3°12.611 267.2 4.2 256 11
2009-12-10 12:54:05 51°23.722 3°12.5 266.2 4.3 258 10.8
2009-12-10 12:55:04 51°23.703 3°12.401 263.6 3.7 252 10.6
2009-12-10 12:56:05 51°23.681 3°12.303 262.3 3.8 248 11.2
2009-12-10 12:57:04 51°23.659 3°12.21 262.6 3.7 251 10.9
2009-12-10 12:58:05 51°23.636 3°12.117 259.9 3.8 247 11.1
2009-12-10 12:59:05 51°23.615 3°12.024 264.2 3.9 253 11.1
2009-12-10 13:00:05 51°23.593 3°11.934 260.2 3.4 249 10.2
2009-12-10 13:01:05 51°23.571 3°11.853 264.8 3.5 252 11.2
2009-12-10 13:02:05 51°23.555 3°11.774 271.9 2.6 244 11.6
2009-12-10 13:03:05 51°23.535 3°11.727 256 1.9 230 11
2009-12-10 13:04:05 51°23.514 3°11.695 234.9 1.7 226 11.4
2009-12-10 13:05:05 51°23.478 3°11.638 236.9 4.7 227 12.5
2009-12-10 13:06:05 51°23.441 3°11.478 257 7.7 247 10.9
2009-12-10 13:07:04 51°23.324 3°11.402 174.3 8.9 183 11.7
2009-12-10 13:08:05 51°23.159 3°11.38 176.9 10 187 11.6
2009-12-10 13:09:05 51°23 3°11.421 154 9.4 168 12
2009-12-10 13:10:05 51°22.871 3°11.448 168.1 6.6 175 12.3
2009-12-10 13:11:05 51°22.772 3°11.433 176.7 5.8 189 12.9
2009-12-10 13:12:04 51°22.681 3°11.409 177.8 5.5 186 13.9
2009-12-10 13:13:04 51°22.585 3°11.388 175.1 6.1 185 14.9
2009-12-10 13:14:05 51°22.488 3°11.369 173.6 5.1 192 15
2009-12-10 13:15:05 51°22.415 3°11.374 130.1 3.4 143 14.8
2009-12-10 13:16:05 51°22.409 3°11.417 58.9 0.2 73 15.3
2009-12-10 13:17:04 51°22.409 3°11.414 41.4 0.4 268 14.8
2009-12-10 13:18:05 51°22.407 3°11.404 33.8 0.5 227 15.2
2009-12-10 13:19:05 51°22.4 3°11.391 33.2 0.8 234 14.7
2009-12-10 13:20:05 51°22.389 3°11.376 36.3 1 210 15.5
2009-12-10 13:21:05 51°22.377 3°11.362 42.9 1 209 15.4
2009-12-10 13:22:04 51°22.365 3°11.349 45.5 0.3 214 15.4
2009-12-10 13:23:05 51°22.389 3°11.367 28.8 3.7 19 15.3
2009-12-10 13:24:05 51°22.479 3°11.366 358.3 7.1 351 14.9
2009-12-10 13:25:04 51°22.626 3°11.309 353.1 10.3 346 13.8
2009-12-10 13:26:05 51°22.788 3°11.244 350.7 9.6 344 13.5
2009-12-10 13:27:04 51°22.944 3°11.177 351.4 10 345 12.7
2009-12-10 13:28:04 51°23.103 3°11.1 348 9.6 342 11
2009-12-10 13:29:05 51°23.25 3°10.994 332.1 10.2 323 11.5
2009-12-10 13:30:04 51°23.382 3°10.818 325.2 10.5 320 12.2
2009-12-10 13:31:03 51°23.513 3°10.638 325.8 10.3 322 12
2009-12-10 13:32:04 51°23.651 3°10.454 327.2 10.6 321 13.6
2009-12-10 13:33:05 51°23.789 3°10.266 327.7 10.8 321 13.4
2009-12-10 13:34:04 51°23.924 3°10.088 327.8 10.6 320 15.2
2009-12-10 13:35:06 51°24.064 3°9.914 327.2 9.5 322 -999
2009-12-10 13:36:06 51°24.196 3°9.749 327.7 10.4 322 17.7
2009-12-10 13:37:04 51°24.332 3°9.578 328.2 10.6 322 14
2009-12-10 13:38:04 51°24.462 3°9.392 318.4 10.6 311 10.6
2009-12-10 13:39:04 51°24.564 3°9.163 301.5 10.6 295 10.6
2009-12-10 13:40:05 51°24.628 3°8.892 295.6 10.1 292 -999
2009-12-10 13:41:04 51°24.685 3°8.628 294 10.9 291 9.6
2009-12-10 13:42:06 51°24.746 3°8.361 295.2 9.1 287 -999
2009-12-10 13:43:05 51°24.803 3°8.129 296 9.7 292 9.3
2009-12-10 13:44:05 51°24.862 3°7.893 297.8 9.6 292 9.5
2009-12-10 13:45:04 51°24.925 3°7.664 303.5 9.9 301 9.3
2009-12-10 13:46:07 51°25.029 3°7.493 327.5 8.7 327 7.9
2009-12-10 13:47:07 51°25.161 3°7.375 337 9.3 344 7.9
2009-12-10 13:48:06 51°25.304 3°7.345 2.4 8.9 358 9.5
2009-12-10 13:49:04 51°25.449 3°7.387 17.5 9.6 23 8.9
2009-12-10 13:50:04 51°25.572 3°7.531 42.7 9.5 44 9
2009-12-10 13:51:04 51°25.677 3°7.727 48.4 10.3 59 9.5
2009-12-10 13:52:04 51°25.778 3°7.93 50.1 9.6 48 -999
2009-12-10 13:53:04 51°25.87 3°8.141 48.4 9.4 45 8.5
2009-12-10 13:54:04 51°25.96 3°8.357 52.7 9.4 49 8.7
2009-12-10 13:55:04 51°26.052 3°8.574 54 9.9 59 8.8
2009-12-10 13:56:04 51°26.15 3°8.785 48.6 9.8 55 8.6
2009-12-10 13:57:04 51°26.246 3°8.998 50.4 10 60 8.9
2009-12-10 13:58:04 51°26.335 3°9.221 54.5 10.1 58 9.1
2009-12-10 13:59:04 51°26.43 3°9.441 53.8 10.2 52 9.6
2009-12-10 14:00:04 51°26.529 3°9.657 48.5 9.9 60 9.8
2009-12-10 14:01:04 51°26.628 3°9.871 49.2 9.8 57 9.6
2009-12-10 14:02:04 51°26.724 3°10.091 49.8 10.3 58 9.7
2009-12-10 14:03:04 51°26.82 3°10.314 52.7 10.2 63 10.1
2009-12-10 14:04:04 51°26.916 3°10.535 50.9 9.9 46 9.4
2009-12-10 14:05:04 51°26.995 3°10.773 62 10.1 69 9.4
2009-12-10 14:06:05 51°27.042 3°11.038 65.9 9.7 76 5
2009-12-10 14:07:04 51°27.082 3°11.297 71.5 10.4 73 8.7
2009-12-10 14:08:04 51°27.124 3°11.561 69.8 10.5 80 8.5
2009-12-10 14:09:04 51°27.163 3°11.828 77.7 10.6 83 8.3
2009-12-10 14:10:04 51°27.208 3°12.09 70.6 10.6 72 7.7
2009-12-10 14:11:04 51°27.253 3°12.351 68.6 9.9 68 8.3
2009-12-10 14:12:04 51°27.296 3°12.614 70.3 10.2 78 7.9
2009-12-10 14:13:04 51°27.34 3°12.877 66.1 9.7 69 7.9
2009-12-10 14:14:04 51°27.382 3°13.14 70.5 10.6 75 8.2
2009-12-10 14:15:04 51°27.426 3°13.402 74.1 10.1 91 8.3
2009-12-10 14:16:04 51°27.335 3°13.631 136.8 11.6 142 7.9
2009-12-10 14:17:04 51°27.183 3°13.806 136.9 11.5 139 8
2009-12-10 14:18:05 51°27.12 3°14.029 82.3 5.7 87 8.3
2009-12-10 14:19:04 51°27.13 3°14.109 55.8 1.6 94 7.7
2009-12-10 14:20:05 51°27.117 3°14.13 50.1 0.9 169 8.1
2009-12-10 14:21:04 51°27.097 3°14.142 46 1 182 7.2
2009-12-10 14:22:04 51°27.072 3°14.15 57.1 1.4 171 7.5
2009-12-10 14:23:04 51°27.044 3°14.159 69.9 1.4 171 8
2009-12-10 14:24:04 51°27.019 3°14.166 66.4 1.6 171 7.5
2009-12-10 14:25:04 51°26.995 3°14.173 62.6 1.7 164 7.7
2009-12-10 14:26:04 51°26.969 3°14.18 58.1 1.9 173 7.8
2009-12-10 14:27:04 51°26.943 3°14.19 57.4 1.6 169 7.5
2009-12-10 14:28:04 51°26.919 3°14.2 55.1 1.9 147 8
2009-12-10 14:29:04 51°26.926 3°14.26 45.8 5.5 49 7.4
2009-12-10 14:30:04 51°27.032 3°14.325 9.8 7.9 8 7.3
2009-12-10 14:31:04 51°27.131 3°14.366 15 2.8 35 8.1
2009-12-10 14:32:04 51°27.138 3°14.397 32.6 1.2 101 8.2
2009-12-10 14:33:04 51°27.13 3°14.423 34.6 0.5 139 7.2
2009-12-10 14:34:04 51°27.111 3°14.443 33.7 1.4 166 7.7
2009-12-10 14:35:04 51°27.092 3°14.466 42.2 1.4 86 7.3
2009-12-10 14:36:04 51°27.14 3°14.484 343.2 3.6 332 8.5
2009-12-10 14:37:04 51°27.153 3°14.377 270.6 4.2 252 7.7
2009-12-10 14:38:04 51°27.12 3°14.3 254.1 3 229 8.4
2009-12-10 14:39:04 51°27.076 3°14.214 251.3 4.6 236 8.7
2009-12-10 14:40:04 51°27.043 3°14.11 268.3 4 251 8.6
2009-12-10 14:41:04 51°27.024 3°14.013 273.9 4.1 249 8.6
2009-12-10 14:42:04 51°27.007 3°13.923 282.8 3.3 260 7.8
2009-12-10 14:43:04 51°27.007 3°13.831 296.2 3.3 280 7.4
2009-12-10 14:44:04 51°27.022 3°13.743 302.3 3.9 293 8.5
2009-12-10 14:45:04 51°27.04 3°13.646 300.4 3.9 286 7.8
2009-12-10 14:46:04 51°27.054 3°13.556 300.7 3.5 288 7.8
2009-12-10 14:47:04 51°27.067 3°13.465 299.8 3.4 286 8.4
2009-12-10 14:48:04 51°27.079 3°13.377 300.6 3.5 283 7.5
2009-12-10 14:49:04 51°27.083 3°13.302 299.8 3.1 277 6.9
2009-12-10 14:50:04 51°27.099 3°13.206 299.8 3.9 289 8.4
2009-12-10 14:51:04 51°27.115 3°13.111 301.6 3.9 286 8.3
2009-12-10 14:52:04 51°27.132 3°13.014 299.1 3.5 284 8.5
2009-12-10 14:53:04 51°27.146 3°12.931 302 3 279 8.8
2009-12-10 14:54:04 51°27.153 3°12.848 296.2 3.1 275 8.4
2009-12-10 14:55:04 51°27.165 3°12.76 300.8 3.7 287 8.3
2009-12-10 14:56:04 51°27.175 3°12.665 290.3 4 271 8.6
2009-12-10 14:57:04 51°27.174 3°12.562 287.5 3.9 273 8.4
2009-12-10 14:58:04 51°27.174 3°12.461 288.7 3.7 263 8.2
2009-12-10 14:59:04 51°27.174 3°12.36 289.2 4 268 8.6
2009-12-10 15:00:04 51°27.172 3°12.258 289.3 3.5 273 7.9
2009-12-10 15:01:04 51°27.171 3°12.165 285.9 3.4 268 8.4
2009-12-10 15:02:04 51°27.161 3°12.062 278.5 4.1 259 9.3
2009-12-10 15:03:04 51°27.147 3°11.959 277.6 3.8 251 9.1
2009-12-10 15:04:04 51°27.124 3°11.865 262.2 4.3 242 9.2
2009-12-10 15:05:04 51°27.085 3°11.757 256.1 4.8 241 8
2009-12-10 15:06:04 51°27.045 3°11.647 255.9 4.7 237 9.3
2009-12-10 15:07:04 51°27.006 3°11.55 254.7 3.9 240 8.2
2009-12-10 15:08:04 51°26.969 3°11.461 258 3.8 240 9.1
2009-12-10 15:09:04 51°26.935 3°11.369 257.3 4.5 234 9.3
2009-12-10 15:10:04 51°26.897 3°11.288 255.5 3.9 230 9.2
2009-12-10 15:11:04 51°26.861 3°11.204 256.7 4.1 238 8.8
2009-12-10 15:12:04 51°26.826 3°11.108 258.5 4.1 240 8.9
2009-12-10 15:13:04 51°26.781 3°11.019 239 4.6 225 9.3
2009-12-10 15:14:04 51°26.719 3°10.953 228.1 4.1 213 8.9
2009-12-10 15:15:04 51°26.66 3°10.894 227.2 4.3 210 8.9
2009-12-10 15:16:04 51°26.601 3°10.834 229.6 4.2 214 9.5
2009-12-10 15:17:04 51°26.547 3°10.783 229.4 3.4 213 8.9
2009-12-10 15:18:04 51°26.501 3°10.741 232.1 2.9 220 8.6
2009-12-10 15:19:04 51°26.453 3°10.704 226.4 3.1 211 8.7
2009-12-10 15:20:04 51°26.406 3°10.665 234 3.1 217 8.6
2009-12-10 15:21:04 51°26.364 3°10.627 241.2 2.5 199 8.7
2009-12-10 15:22:04 51°26.329 3°10.612 238 2 183 9
2009-12-10 15:23:04 51°26.298 3°10.614 232.3 2.2 167 9.2
2009-12-10 15:24:04 51°26.265 3°10.616 230.9 3.1 186 8.8
2009-12-10 15:25:04 51°26.224 3°10.546 263.6 5.1 245 8.8
2009-12-10 15:26:04 51°26.19 3°10.359 268.3 8.9 259 8.5
2009-12-10 15:27:04 51°26.174 3°10.103 270.9 9.6 266 8.1
2009-12-10 15:28:04 51°26.155 3°9.848 271.5 9.5 262 8.2
2009-12-10 15:29:04 51°26.138 3°9.585 271.5 10.1 265 9.1
2009-12-10 15:30:06 51°26.12 3°9.318 272.4 9.7 262 9.4
2009-12-10 15:31:04 51°26.074 3°9.066 253.2 10.6 247 9.1
2009-12-10 15:32:04 51°25.972 3°8.824 236.1 11 232 9
2009-12-10 15:33:04 51°25.854 3°8.6 234.6 10.9 236 8.8
2009-12-10 15:34:04 51°25.737 3°8.369 236.5 11.3 233 9.3
2009-12-10 15:35:04 51°25.622 3°8.139 236.2 10.8 232 9
2009-12-10 15:36:05 51°25.509 3°7.907 236.2 10.5 228 -999
2009-12-10 15:37:04 51°25.402 3°7.689 237.4 10.3 233 8.3
2009-12-10 15:38:04 51°25.293 3°7.468 238.9 10.8 231 8.9
2009-12-10 15:39:04 51°25.182 3°7.235 239.4 11.1 227 9.6
2009-12-10 15:40:04 51°25.072 3°6.999 238.5 10.9 233 9
2009-12-10 15:41:04 51°24.963 3°6.765 237.4 10.7 232 10.3
2009-12-10 15:42:04 51°24.856 3°6.537 235.2 10.7 233 10.9
2009-12-10 15:43:05 51°24.754 3°6.291 245 10.6 240 12.2
2009-12-10 15:44:05 51°24.679 3°6.037 251.7 10.1 247 -999
2009-12-10 15:45:04 51°24.609 3°5.785 251.6 10.8 245 13.4
2009-12-10 15:46:05 51°24.532 3°5.54 246.1 9.7 233 -999
2009-12-10 15:47:06 51°24.429 3°5.323 231.6 10.6 226 -999
2009-12-10 15:48:04 51°24.273 3°5.191 199.5 11.4 199 17.9
2009-12-10 15:49:04 51°24.095 3°5.091 198.3 11.6 192 20.7
2009-12-10 15:50:04 51°23.916 3°4.999 198.3 11.4 198 15.5
2009-12-10 15:51:04 51°23.734 3°4.906 197.4 11.6 201 13.7
2009-12-10 15:52:04 51°23.552 3°4.806 197.7 11.8 197 13.4
2009-12-10 15:53:04 51°23.372 3°4.701 200.3 11.7 198 12.1
2009-12-10 15:54:04 51°23.191 3°4.598 197.9 11.5 203 12.8
2009-12-10 15:55:04 51°23.033 3°4.429 219.7 11.4 215 11.5
2009-12-10 15:56:04 51°22.893 3°4.219 226.7 11.5 227 11.9
2009-12-10 15:57:04 51°22.758 3°3.999 227.3 11.5 220 11.8
2009-12-10 15:58:04 51°22.62 3°3.784 226.3 11.6 225 13.3
2009-12-10 15:59:04 51°22.499 3°3.554 234 11.3 231 12.6
2009-12-10 16:00:04 51°22.378 3°3.319 232 11.5 229 11.2
2009-12-10 16:01:04 51°22.257 3°3.084 233.1 11.4 230 12
2009-12-10 16:02:04 51°22.134 3°2.856 232.5 11 230 11.8
2009-12-10 16:03:04 51°22.01 3°2.627 230 11.6 230 12.7
2009-12-10 16:04:04 51°21.887 3°2.397 228.7 11.6 232 12.2
2009-12-10 16:05:04 51°21.763 3°2.167 232.4 11.3 228 12.7
2009-12-10 16:06:04 51°21.649 3°1.934 235.6 11 232 13.3
2009-12-10 16:07:04 51°21.536 3°1.699 234.9 11.1 234 12.8
2009-12-10 16:08:04 51°21.424 3°1.46 236.5 11.2 230 11.8
2009-12-10 16:09:04 51°21.311 3°1.218 234.4 11.2 234 11.9
2009-12-10 16:10:04 51°21.197 3°0.976 234.5 11.3 234 11.7
2009-12-10 16:11:04 51°21.085 3°0.73 235.3 11.3 232 11.9
2009-12-10 16:12:04 51°20.973 3°0.487 233.1 11.2 233 11.5
2009-12-10 16:13:04 51°20.862 3°0.243 237.6 11.1 237 11.8
2009-12-10 16:14:04 51°20.767 2°59.986 242.8 11.2 239 12.4
2009-12-10 16:15:05 51°20.673 2°59.723 239 10.7 243 12.2
2009-12-10 16:16:04 51°20.583 2°59.466 241.8 11.3 241 11.4
2009-12-10 16:17:04 51°20.491 2°59.205 241 11.4 239 12.6
2009-12-10 16:18:04 51°20.399 2°58.944 242.1 11.5 241 12.2
2009-12-10 16:19:04 51°20.304 2°58.679 242.1 11.5 235 12.6
2009-12-10 16:20:04 51°20.211 2°58.417 241.3 11.5 242 11.9
2009-12-10 16:21:04 51°20.115 2°58.151 239.8 11.5 243 11.7
2009-12-10 16:22:04 51°20.022 2°57.885 241.3 11.5 240 12.3
2009-12-10 16:23:04 51°19.929 2°57.619 241.1 11.5 242 11.7
2009-12-10 16:24:04 51°19.834 2°57.355 241.9 11.4 241 11.6
2009-12-10 16:25:04 51°19.738 2°57.093 240.3 11.3 240 11.7
2009-12-10 16:26:05 51°19.64 2°56.828 240.6 11.4 243 11.9
2009-12-10 16:27:04 51°19.546 2°56.573 240.8 11.3 242 12.2
2009-12-10 16:28:04 51°19.451 2°56.309 241.8 11.4 241 12.2
2009-12-10 16:29:04 51°19.356 2°56.044 241.1 11.6 240 12.7
2009-12-10 16:30:04 51°19.261 2°55.779 240.9 11.5 242 12.1
2009-12-10 16:31:04 51°19.166 2°55.519 241.4 11.6 241 11.8
2009-12-10 16:32:04 51°19.069 2°55.251 241.8 11.6 242 12.7
2009-12-10 16:33:04 51°18.972 2°54.992 240.8 11.4 240 11.8
2009-12-10 16:34:04 51°18.874 2°54.728 241.1 11.6 240 12.5
2009-12-10 16:35:04 51°18.78 2°54.466 242.1 11.2 242 12.4
2009-12-10 16:36:04 51°18.683 2°54.204 241.3 11.5 240 11.7
2009-12-10 16:37:04 51°18.586 2°53.947 241.1 11.6 237 13.1
2009-12-10 16:38:04 51°18.49 2°53.682 241.9 11.5 241 12.2
2009-12-10 16:39:04 51°18.393 2°53.424 240.3 10.9 237 11.4
2009-12-10 16:40:04 51°18.302 2°53.166 241.7 11.3 240 12.5
2009-12-10 16:41:04 51°18.211 2°52.917 242.1 10.7 243 12.8
2009-12-10 16:42:04 51°18.112 2°52.68 235.5 10.6 229 12.5
2009-12-10 16:43:04 51°17.96 2°52.525 199.7 11.3 199 12
2009-12-10 16:44:04 51°17.775 2°52.487 179.7 12 182 12.2
2009-12-10 16:45:04 51°17.588 2°52.471 180.8 11.5 175 12
2009-12-10 16:46:04 51°17.403 2°52.446 184.4 11.1 183 11.6
2009-12-10 16:47:04 51°17.218 2°52.422 182.5 11.4 181 12.4
2009-12-10 16:48:04 51°17.035 2°52.389 185.8 11.2 191 11.5
2009-12-10 16:49:04 51°16.853 2°52.397 165.6 11 165 11
2009-12-10 16:50:04 51°16.68 2°52.509 152.6 11.3 152 12.6
2009-12-10 16:51:05 51°16.514 2°52.651 150 11.1 147 13.5
2009-12-10 16:52:04 51°16.352 2°52.794 147.9 11.5 150 13.7
2009-12-10 16:53:04 51°16.188 2°52.932 150.5 11.1 154 13.2
2009-12-10 16:54:04 51°16.02 2°53.06 155.4 11.2 151 13.4
2009-12-10 16:55:04 51°15.85 2°53.186 154.5 11 159 13.5
2009-12-10 16:56:04 51°15.683 2°53.316 154.4 11.2 152 12.6
2009-12-10 16:57:04 51°15.515 2°53.444 154 10.4 159 11.9
2009-12-10 16:58:04 51°15.378 2°53.553 154.4 8.2 152 11.9
2009-12-10 16:59:04 51°15.301 2°53.693 129.2 6.5 131 11.7
2009-12-10 17:00:04 51°15.242 2°53.816 126.2 5.5 133 11.7
2009-12-10 17:01:04 51°15.189 2°53.927 128.1 5.1 122 11
2009-12-10 17:02:04 51°15.143 2°54.03 127.2 4.4 127 11.4
2009-12-10 17:03:04 51°15.106 2°54.118 126.5 3.5 131 11.4
2009-12-10 17:04:04 51°15.076 2°54.189 130.6 3 122 10.5
2009-12-10 17:05:04 51°15.053 2°54.247 128.5 2.4 126 10.7
2009-12-10 17:06:04 51°15.035 2°54.301 124.4 2.3 118 10.3
2009-12-10 17:07:04 51°15.019 2°54.351 122.7 2 119 11.6
2009-12-10 17:08:04 51°15.004 2°54.401 121.7 2.1 118 12.2
2009-12-10 17:09:04 51°14.984 2°54.461 125.3 3.3 121 12
2009-12-10 17:10:04 51°14.929 2°54.549 144.1 7 142 12
2009-12-10 17:11:04 51°14.793 2°54.683 149.8 11 151 11.9
2009-12-10 17:12:04 51°14.632 2°54.825 151.6 11.4 151 11.8
2009-12-10 17:13:04 51°14.471 2°54.957 149.1 11.1 147 12.3
2009-12-10 17:14:04 51°14.327 2°55.139 132.9 11.1 136 12.7
2009-12-10 17:15:04 51°14.199 2°55.346 140.2 10.5 143 13.1
2009-12-10 17:16:04 51°14.075 2°55.45 152.5 7.7 157 12.9
2009-12-10 17:17:04 51°13.967 2°55.525 153.8 7 156 13.3
2009-12-10 17:18:04 51°13.853 2°55.607 151.1 7.8 152 13.3
2009-12-10 17:19:08 51°13.753 2°55.718 131.9 5.3 136 14
2009-12-10 17:20:08 51°13.705 2°55.809 122.7 4.1 125 -999
2009-12-10 17:21:08 51°13.675 2°55.909 110.4 4.4 109 -999
2009-12-10 17:22:08 51°13.663 2°55.954 114.4 0.5 130 -999